sensor_id;sensor_type;location;lat;lon;timestamp;temperature;humidity
16038;DHT22;8123;50.906;6.172;2023-10-08T00:01:41;17.40;99.90
16038;DHT22;8123;50.906;6.172;2023-10-08T00:04:08;17.40;78.50
16038;DHT22;8123;50.906;6.172;2023-10-08T00:06:36;17.40;1.00
16038;DHT22;8123;50.906;6.172;2023-10-08T00:09:03;17.30;45.50
16038;DHT22;8123;50.906;6.172;2023-10-08T00:11:34;17.30;53.10
16038;DHT22;8123;50.906;6.172;2023-10-08T00:14:00;17.30;59.80
16038;DHT22;8123;50.906;6.172;2023-10-08T00:16:26;17.30;99.90
16038;DHT22;8123;50.906;6.172;2023-10-08T00:18:54;17.20;99.90
16038;DHT22;8123;50.906;6.172;2023-10-08T00:21:24;17.20;1.00
16038;DHT22;8123;50.906;6.172;2023-10-08T00:23:53;17.20;66.40
16038;DHT22;8123;50.906;6.172;2023-10-08T00:26:21;17.10;77.90
16038;DHT22;8123;50.906;6.172;2023-10-08T00:28:57;17.10;1.00
16038;DHT22;8123;50.906;6.172;2023-10-08T00:31:25;17.20;1.00
16038;DHT22;8123;50.906;6.172;2023-10-08T00:34:02;17.20;1.00
16038;DHT22;8123;50.906;6.172;2023-10-08T00:36:30;17.10;1.00
16038;DHT22;8123;50.906;6.172;2023-10-08T00:38:56;17.10;1.00
16038;DHT22;8123;50.906;6.172;2023-10-08T00:41:26;17.00;86.50
16038;DHT22;8123;50.906;6.172;2023-10-08T00:43:57;17.00;1.00
16038;DHT22;8123;50.906;6.172;2023-10-08T00:46:25;17.00;1.00
16038;DHT22;8123;50.906;6.172;2023-10-08T00:49:02;17.00;1.00
16038;DHT22;8123;50.906;6.172;2023-10-08T00:52:03;17.00;1.00
16038;DHT22;8123;50.906;6.172;2023-10-08T00:54:49;17.00;1.00
16038;DHT22;8123;50.906;6.172;2023-10-08T00:57:30;17.00;1.00
16038;DHT22;8123;50.906;6.172;2023-10-08T00:59:59;17.00;1.00
16038;DHT22;8123;50.906;6.172;2023-10-08T01:02:29;16.90;1.00
16038;DHT22;8123;50.906;6.172;2023-10-08T01:05:08;16.90;1.00
16038;DHT22;8123;50.906;6.172;2023-10-08T01:07:35;16.90;1.00
16038;DHT22;8123;50.906;6.172;2023-10-08T01:10:01;16.80;1.00
16038;DHT22;8123;50.906;6.172;2023-10-08T01:12:35;16.80;1.00
16038;DHT22;8123;50.906;6.172;2023-10-08T01:15:10;16.80;1.00
16038;DHT22;8123;50.906;6.172;2023-10-08T01:17:54;16.70;1.00
16038;DHT22;8123;50.906;6.172;2023-10-08T01:20:28;16.70;1.00
16038;DHT22;8123;50.906;6.172;2023-10-08T01:23:05;16.70;1.00
16038;DHT22;8123;50.906;6.172;2023-10-08T01:25:36;16.70;1.00
16038;DHT22;8123;50.906;6.172;2023-10-08T01:28:02;16.70;1.00
16038;DHT22;8123;50.906;6.172;2023-10-08T01:30:35;16.60;1.00
16038;DHT22;8123;50.906;6.172;2023-10-08T01:33:10;16.60;1.00
16038;DHT22;8123;50.906;6.172;2023-10-08T01:35:41;16.50;1.00
16038;DHT22;8123;50.906;6.172;2023-10-08T01:38:07;16.50;1.00
16038;DHT22;8123;50.906;6.172;2023-10-08T01:40:39;16.50;1.00
16038;DHT22;8123;50.906;6.172;2023-10-08T01:43:04;16.50;1.00
16038;DHT22;8123;50.906;6.172;2023-10-08T01:45:30;16.40;1.00
16038;DHT22;8123;50.906;6.172;2023-10-08T01:47:58;16.40;1.00
16038;DHT22;8123;50.906;6.172;2023-10-08T01:50:23;16.50;1.00
16038;DHT22;8123;50.906;6.172;2023-10-08T01:52:55;16.40;1.00
16038;DHT22;8123;50.906;6.172;2023-10-08T01:55:21;16.40;1.00
16038;DHT22;8123;50.906;6.172;2023-10-08T01:57:50;16.40;1.00
16038;DHT22;8123;50.906;6.172;2023-10-08T02:00:18;16.40;1.00
16038;DHT22;8123;50.906;6.172;2023-10-08T02:02:51;16.40;99.90
16038;DHT22;8123;50.906;6.172;2023-10-08T02:05:17;16.40;1.00
16038;DHT22;8123;50.906;6.172;2023-10-08T02:07:45;16.30;1.00
16038;DHT22;8123;50.906;6.172;2023-10-08T02:10:11;16.30;1.00
16038;DHT22;8123;50.906;6.172;2023-10-08T02:12:40;16.20;1.00
16038;DHT22;8123;50.906;6.172;2023-10-08T02:15:08;16.20;1.00
16038;DHT22;8123;50.906;6.172;2023-10-08T02:17:34;16.30;1.00
16038;DHT22;8123;50.906;6.172;2023-10-08T02:20:00;16.30;99.90
16038;DHT22;8123;50.906;6.172;2023-10-08T02:22:30;16.30;1.00
16038;DHT22;8123;50.906;6.172;2023-10-08T02:24:56;16.20;1.00
16038;DHT22;8123;50.906;6.172;2023-10-08T02:27:29;16.20;1.00
16038;DHT22;8123;50.906;6.172;2023-10-08T02:29:58;16.10;1.00
16038;DHT22;8123;50.906;6.172;2023-10-08T02:32:23;16.10;1.00
16038;DHT22;8123;50.906;6.172;2023-10-08T02:34:49;16.10;1.00
16038;DHT22;8123;50.906;6.172;2023-10-08T02:37:16;16.10;1.00
16038;DHT22;8123;50.906;6.172;2023-10-08T02:39:41;16.10;1.00
16038;DHT22;8123;50.906;6.172;2023-10-08T02:42:08;16.10;1.00
16038;DHT22;8123;50.906;6.172;2023-10-08T02:44:36;16.10;1.00
16038;DHT22;8123;50.906;6.172;2023-10-08T02:47:09;16.10;1.00
16038;DHT22;8123;50.906;6.172;2023-10-08T02:49:37;16.10;1.00
16038;DHT22;8123;50.906;6.172;2023-10-08T02:52:06;16.10;1.00
16038;DHT22;8123;50.906;6.172;2023-10-08T02:54:34;16.10;1.00
16038;DHT22;8123;50.906;6.172;2023-10-08T02:57:02;16.10;1.00
16038;DHT22;8123;50.906;6.172;2023-10-08T02:59:36;16.10;1.00
16038;DHT22;8123;50.906;6.172;2023-10-08T03:02:12;16.10;99.90
16038;DHT22;8123;50.906;6.172;2023-10-08T03:04:41;16.20;1.00
16038;DHT22;8123;50.906;6.172;2023-10-08T03:07:08;16.10;1.00
16038;DHT22;8123;50.906;6.172;2023-10-08T03:09:37;16.10;1.00
16038;DHT22;8123;50.906;6.172;2023-10-08T03:12:07;16.20;99.90
16038;DHT22;8123;50.906;6.172;2023-10-08T03:14:35;16.20;1.00
16038;DHT22;8123;50.906;6.172;2023-10-08T03:17:14;16.20;99.90
16038;DHT22;8123;50.906;6.172;2023-10-08T03:19:45;16.20;99.90
16038;DHT22;8123;50.906;6.172;2023-10-08T03:22:11;16.20;99.90
16038;DHT22;8123;50.906;6.172;2023-10-08T03:24:37;16.20;99.90
16038;DHT22;8123;50.906;6.172;2023-10-08T03:27:05;16.10;99.90
16038;DHT22;8123;50.906;6.172;2023-10-08T03:29:46;16.20;99.90
16038;DHT22;8123;50.906;6.172;2023-10-08T03:32:13;16.10;1.00
16038;DHT22;8123;50.906;6.172;2023-10-08T03:34:48;16.10;99.90
16038;DHT22;8123;50.906;6.172;2023-10-08T03:37:16;16.20;99.90
16038;DHT22;8123;50.906;6.172;2023-10-08T03:39:55;16.10;99.90
16038;DHT22;8123;50.906;6.172;2023-10-08T03:42:33;16.10;99.90
16038;DHT22;8123;50.906;6.172;2023-10-08T03:45:06;16.10;99.90
16038;DHT22;8123;50.906;6.172;2023-10-08T03:47:40;16.10;99.90
16038;DHT22;8123;50.906;6.172;2023-10-08T03:50:11;16.10;99.90
16038;DHT22;8123;50.906;6.172;2023-10-08T03:52:42;16.10;99.90
16038;DHT22;8123;50.906;6.172;2023-10-08T03:55:09;16.10;99.90
16038;DHT22;8123;50.906;6.172;2023-10-08T03:57:44;16.10;99.90
16038;DHT22;8123;50.906;6.172;2023-10-08T04:00:14;16.10;99.90
16038;DHT22;8123;50.906;6.172;2023-10-08T04:02:53;16.10;99.90
16038;DHT22;8123;50.906;6.172;2023-10-08T04:05:27;16.10;99.90
16038;DHT22;8123;50.906;6.172;2023-10-08T04:07:58;16.10;99.90
16038;DHT22;8123;50.906;6.172;2023-10-08T04:10:23;16.00;99.90
16038;DHT22;8123;50.906;6.172;2023-10-08T04:13:01;16.00;99.90
16038;DHT22;8123;50.906;6.172;2023-10-08T04:15:27;16.00;99.90
16038;DHT22;8123;50.906;6.172;2023-10-08T04:17:52;16.00;99.90
16038;DHT22;8123;50.906;6.172;2023-10-08T04:20:18;16.00;99.90
16038;DHT22;8123;50.906;6.172;2023-10-08T04:23:10;16.10;99.90
16038;DHT22;8123;50.906;6.172;2023-10-08T04:25:39;16.00;99.90
16038;DHT22;8123;50.906;6.172;2023-10-08T04:28:07;16.00;99.90
16038;DHT22;8123;50.906;6.172;2023-10-08T04:30:38;16.00;99.90
16038;DHT22;8123;50.906;6.172;2023-10-08T04:33:07;16.10;99.90
16038;DHT22;8123;50.906;6.172;2023-10-08T04:35:37;16.10;99.90
16038;DHT22;8123;50.906;6.172;2023-10-08T04:38:14;16.00;99.90
16038;DHT22;8123;50.906;6.172;2023-10-08T04:40:42;16.10;99.90
16038;DHT22;8123;50.906;6.172;2023-10-08T04:43:17;16.10;99.90
16038;DHT22;8123;50.906;6.172;2023-10-08T04:45:56;16.10;99.90
16038;DHT22;8123;50.906;6.172;2023-10-08T04:48:25;16.10;99.90
16038;DHT22;8123;50.906;6.172;2023-10-08T04:50:53;16.00;99.90
16038;DHT22;8123;50.906;6.172;2023-10-08T04:53:34;16.10;99.90
16038;DHT22;8123;50.906;6.172;2023-10-08T04:56:07;16.10;99.90
16038;DHT22;8123;50.906;6.172;2023-10-08T04:58:41;16.00;99.90
16038;DHT22;8123;50.906;6.172;2023-10-08T05:01:08;16.10;99.90
16038;DHT22;8123;50.906;6.172;2023-10-08T05:03:46;16.10;99.90
16038;DHT22;8123;50.906;6.172;2023-10-08T05:06:32;16.00;1.00
16038;DHT22;8123;50.906;6.172;2023-10-08T05:09:18;15.90;1.00
16038;DHT22;8123;50.906;6.172;2023-10-08T05:11:44;15.90;1.00
16038;DHT22;8123;50.906;6.172;2023-10-08T05:14:23;15.90;1.00
16038;DHT22;8123;50.906;6.172;2023-10-08T05:17:00;15.90;1.00
16038;DHT22;8123;50.906;6.172;2023-10-08T05:19:28;15.90;1.00
16038;DHT22;8123;50.906;6.172;2023-10-08T05:22:15;15.90;1.00
16038;DHT22;8123;50.906;6.172;2023-10-08T05:25:04;15.90;1.00
16038;DHT22;8123;50.906;6.172;2023-10-08T05:27:52;15.90;1.00
16038;DHT22;8123;50.906;6.172;2023-10-08T05:30:26;15.80;99.90
16038;DHT22;8123;50.906;6.172;2023-10-08T05:33:04;15.70;99.90
16038;DHT22;8123;50.906;6.172;2023-10-08T05:35:41;15.70;99.90
16038;DHT22;8123;50.906;6.172;2023-10-08T05:40:44;15.50;1.00
16038;DHT22;8123;50.906;6.172;2023-10-08T05:43:37;15.50;1.00
16038;DHT22;8123;50.906;6.172;2023-10-08T05:46:15;15.40;1.00
16038;DHT22;8123;50.906;6.172;2023-10-08T05:49:07;15.40;1.00
16038;DHT22;8123;50.906;6.172;2023-10-08T05:51:37;15.30;1.00
16038;DHT22;8123;50.906;6.172;2023-10-08T05:54:32;15.40;1.00
16038;DHT22;8123;50.906;6.172;2023-10-08T05:57:05;15.30;1.00
16038;DHT22;8123;50.906;6.172;2023-10-08T05:59:46;15.30;1.00
16038;DHT22;8123;50.906;6.172;2023-10-08T06:02:26;15.30;1.00
16038;DHT22;8123;50.906;6.172;2023-10-08T06:05:05;15.30;1.00
16038;DHT22;8123;50.906;6.172;2023-10-08T06:07:53;15.30;1.00
16038;DHT22;8123;50.906;6.172;2023-10-08T06:10:20;15.30;1.00
16038;DHT22;8123;50.906;6.172;2023-10-08T06:13:06;15.30;1.00
16038;DHT22;8123;50.906;6.172;2023-10-08T06:15:36;15.20;1.00
16038;DHT22;8123;50.906;6.172;2023-10-08T06:18:30;15.20;99.90
16038;DHT22;8123;50.906;6.172;2023-10-08T06:21:00;15.20;95.40
16038;DHT22;8123;50.906;6.172;2023-10-08T06:23:27;15.20;99.90
16038;DHT22;8123;50.906;6.172;2023-10-08T06:25:55;15.20;99.90
16038;DHT22;8123;50.906;6.172;2023-10-08T06:28:40;15.30;88.00
16038;DHT22;8123;50.906;6.172;2023-10-08T06:31:07;15.30;1.00
16038;DHT22;8123;50.906;6.172;2023-10-08T06:33:43;15.30;1.00
16038;DHT22;8123;50.906;6.172;2023-10-08T06:36:10;15.40;1.00
16038;DHT22;8123;50.906;6.172;2023-10-08T06:38:39;15.40;1.00
16038;DHT22;8123;50.906;6.172;2023-10-08T06:41:08;15.40;1.00
16038;DHT22;8123;50.906;6.172;2023-10-08T06:43:46;15.40;1.00
16038;DHT22;8123;50.906;6.172;2023-10-08T06:46:18;15.40;1.00
16038;DHT22;8123;50.906;6.172;2023-10-08T06:48:49;15.40;1.00
16038;DHT22;8123;50.906;6.172;2023-10-08T06:51:15;15.40;1.00
16038;DHT22;8123;50.906;6.172;2023-10-08T06:53:44;15.50;1.00
16038;DHT22;8123;50.906;6.172;2023-10-08T06:56:10;15.50;28.60
16038;DHT22;8123;50.906;6.172;2023-10-08T06:58:38;15.50;1.00
16038;DHT22;8123;50.906;6.172;2023-10-08T07:01:04;15.50;1.00
16038;DHT22;8123;50.906;6.172;2023-10-08T07:03:31;15.50;99.90
16038;DHT22;8123;50.906;6.172;2023-10-08T07:05:59;15.50;99.90
16038;DHT22;8123;50.906;6.172;2023-10-08T07:08:30;15.50;99.90
16038;DHT22;8123;50.906;6.172;2023-10-08T07:11:02;15.50;14.30
16038;DHT22;8123;50.906;6.172;2023-10-08T07:13:34;15.50;1.00
16038;DHT22;8123;50.906;6.172;2023-10-08T07:16:02;15.50;1.00
16038;DHT22;8123;50.906;6.172;2023-10-08T07:18:29;15.60;1.00
16038;DHT22;8123;50.906;6.172;2023-10-08T07:20:57;15.50;1.00
16038;DHT22;8123;50.906;6.172;2023-10-08T07:23:27;15.50;1.00
16038;DHT22;8123;50.906;6.172;2023-10-08T07:25:59;15.60;1.00
16038;DHT22;8123;50.906;6.172;2023-10-08T07:28:40;15.60;1.00
16038;DHT22;8123;50.906;6.172;2023-10-08T07:31:16;15.60;1.00
16038;DHT22;8123;50.906;6.172;2023-10-08T07:33:46;15.60;1.00
16038;DHT22;8123;50.906;6.172;2023-10-08T07:36:12;15.60;1.00
16038;DHT22;8123;50.906;6.172;2023-10-08T07:38:42;15.70;1.00
16038;DHT22;8123;50.906;6.172;2023-10-08T07:41:10;15.70;1.00
16038;DHT22;8123;50.906;6.172;2023-10-08T07:43:42;15.70;4.30
16038;DHT22;8123;50.906;6.172;2023-10-08T07:46:08;15.70;99.90
16038;DHT22;8123;50.906;6.172;2023-10-08T07:48:35;15.70;1.00
16038;DHT22;8123;50.906;6.172;2023-10-08T07:51:01;16.00;1.00
16038;DHT22;8123;50.906;6.172;2023-10-08T07:53:27;15.90;1.00
16038;DHT22;8123;50.906;6.172;2023-10-08T07:56:04;16.00;1.00
16038;DHT22;8123;50.906;6.172;2023-10-08T07:58:35;16.10;1.00
16038;DHT22;8123;50.906;6.172;2023-10-08T08:01:06;16.20;1.00
16038;DHT22;8123;50.906;6.172;2023-10-08T08:03:33;16.20;99.90
16038;DHT22;8123;50.906;6.172;2023-10-08T08:06:00;16.30;1.00
16038;DHT22;8123;50.906;6.172;2023-10-08T08:08:26;16.40;1.00
16038;DHT22;8123;50.906;6.172;2023-10-08T08:10:53;16.40;99.90
16038;DHT22;8123;50.906;6.172;2023-10-08T08:13:29;16.50;99.90
16038;DHT22;8123;50.906;6.172;2023-10-08T08:15:55;16.60;99.90
16038;DHT22;8123;50.906;6.172;2023-10-08T08:18:25;16.60;99.90
16038;DHT22;8123;50.906;6.172;2023-10-08T08:20:51;16.60;99.90
16038;DHT22;8123;50.906;6.172;2023-10-08T08:23:16;16.60;99.90
16038;DHT22;8123;50.906;6.172;2023-10-08T08:25:43;16.60;99.90
16038;DHT22;8123;50.906;6.172;2023-10-08T08:28:21;16.70;99.90
16038;DHT22;8123;50.906;6.172;2023-10-08T08:30:50;16.70;99.90
16038;DHT22;8123;50.906;6.172;2023-10-08T08:33:18;16.80;1.00
16038;DHT22;8123;50.906;6.172;2023-10-08T08:36:00;16.90;1.00
16038;DHT22;8123;50.906;6.172;2023-10-08T08:38:31;17.00;99.90
16038;DHT22;8123;50.906;6.172;2023-10-08T08:41:04;17.10;99.90
16038;DHT22;8123;50.906;6.172;2023-10-08T08:43:36;17.10;99.90
16038;DHT22;8123;50.906;6.172;2023-10-08T08:46:05;17.20;99.90
16038;DHT22;8123;50.906;6.172;2023-10-08T08:48:33;17.30;69.50
16038;DHT22;8123;50.906;6.172;2023-10-08T08:51:00;17.30;96.90
16038;DHT22;8123;50.906;6.172;2023-10-08T08:53:26;17.30;99.90
16038;DHT22;8123;50.906;6.172;2023-10-08T08:55:54;17.40;99.90
16038;DHT22;8123;50.906;6.172;2023-10-08T08:58:21;17.40;99.90
16038;DHT22;8123;50.906;6.172;2023-10-08T09:00:52;17.50;1.00
16038;DHT22;8123;50.906;6.172;2023-10-08T09:03:18;17.50;1.00
16038;DHT22;8123;50.906;6.172;2023-10-08T09:05:45;17.50;1.00
16038;DHT22;8123;50.906;6.172;2023-10-08T09:08:15;17.50;1.00
16038;DHT22;8123;50.906;6.172;2023-10-08T09:10:43;17.60;35.40
16038;DHT22;8123;50.906;6.172;2023-10-08T09:13:22;17.70;1.00
16038;DHT22;8123;50.906;6.172;2023-10-08T09:15:49;17.70;1.00
16038;DHT22;8123;50.906;6.172;2023-10-08T09:18:15;17.70;1.00
16038;DHT22;8123;50.906;6.172;2023-10-08T09:20:41;17.70;1.00
16038;DHT22;8123;50.906;6.172;2023-10-08T09:25:40;17.80;1.00
16038;DHT22;8123;50.906;6.172;2023-10-08T09:28:05;17.80;1.00
16038;DHT22;8123;50.906;6.172;2023-10-08T09:30:35;17.90;1.00
16038;DHT22;8123;50.906;6.172;2023-10-08T09:33:06;18.00;1.00
16038;DHT22;8123;50.906;6.172;2023-10-08T09:35:33;18.00;1.00
16038;DHT22;8123;50.906;6.172;2023-10-08T09:38:01;18.00;1.00
16038;DHT22;8123;50.906;6.172;2023-10-08T09:40:28;18.00;1.00
16038;DHT22;8123;50.906;6.172;2023-10-08T09:42:54;18.00;1.00
16038;DHT22;8123;50.906;6.172;2023-10-08T09:45:21;18.10;1.00
16038;DHT22;8123;50.906;6.172;2023-10-08T09:47:52;18.10;1.00
16038;DHT22;8123;50.906;6.172;2023-10-08T09:50:22;18.10;1.00
16038;DHT22;8123;50.906;6.172;2023-10-08T09:52:59;18.10;1.00
16038;DHT22;8123;50.906;6.172;2023-10-08T09:55:26;18.10;1.00
16038;DHT22;8123;50.906;6.172;2023-10-08T09:57:52;18.10;1.00
16038;DHT22;8123;50.906;6.172;2023-10-08T10:00:21;18.10;9.30
16038;DHT22;8123;50.906;6.172;2023-10-08T10:02:58;18.10;1.00
16038;DHT22;8123;50.906;6.172;2023-10-08T10:05:30;18.20;12.90
16038;DHT22;8123;50.906;6.172;2023-10-08T10:07:56;18.20;1.00
16038;DHT22;8123;50.906;6.172;2023-10-08T10:10:27;18.30;1.00
16038;DHT22;8123;50.906;6.172;2023-10-08T10:12:56;18.30;4.70
16038;DHT22;8123;50.906;6.172;2023-10-08T10:15:22;18.30;1.00
16038;DHT22;8123;50.906;6.172;2023-10-08T10:17:47;18.40;1.00
16038;DHT22;8123;50.906;6.172;2023-10-08T10:20:15;18.40;1.00
16038;DHT22;8123;50.906;6.172;2023-10-08T10:22:40;18.40;1.00
16038;DHT22;8123;50.906;6.172;2023-10-08T10:25:09;18.50;1.00
16038;DHT22;8123;50.906;6.172;2023-10-08T10:30:24;18.50;1.00
16038;DHT22;8123;50.906;6.172;2023-10-08T10:32:53;18.40;1.00
16038;DHT22;8123;50.906;6.172;2023-10-08T10:35:19;18.40;1.00
16038;DHT22;8123;50.906;6.172;2023-10-08T10:37:46;18.40;1.00
16038;DHT22;8123;50.906;6.172;2023-10-08T10:40:24;18.40;38.70
16038;DHT22;8123;50.906;6.172;2023-10-08T10:43:08;18.50;1.00
16038;DHT22;8123;50.906;6.172;2023-10-08T10:45:41;18.50;1.00
16038;DHT22;8123;50.906;6.172;2023-10-08T10:48:12;18.40;1.00
16038;DHT22;8123;50.906;6.172;2023-10-08T10:50:40;18.40;1.00
16038;DHT22;8123;50.906;6.172;2023-10-08T10:53:17;18.50;1.00
16038;DHT22;8123;50.906;6.172;2023-10-08T10:55:43;18.60;1.00
16038;DHT22;8123;50.906;6.172;2023-10-08T10:58:24;18.60;1.00
16038;DHT22;8123;50.906;6.172;2023-10-08T11:00:50;18.60;1.00
16038;DHT22;8123;50.906;6.172;2023-10-08T11:03:23;18.70;1.00
16038;DHT22;8123;50.906;6.172;2023-10-08T11:05:57;18.80;1.00
16038;DHT22;8123;50.906;6.172;2023-10-08T11:08:25;18.80;1.00
16038;DHT22;8123;50.906;6.172;2023-10-08T11:10:52;18.90;1.00
16038;DHT22;8123;50.906;6.172;2023-10-08T11:13:24;18.90;99.90
16038;DHT22;8123;50.906;6.172;2023-10-08T11:15:54;18.90;1.00
16038;DHT22;8123;50.906;6.172;2023-10-08T11:18:25;19.00;1.00
16038;DHT22;8123;50.906;6.172;2023-10-08T11:20:53;19.00;1.00
16038;DHT22;8123;50.906;6.172;2023-10-08T11:23:44;19.10;1.00
16038;DHT22;8123;50.906;6.172;2023-10-08T11:26:19;19.30;99.90
16038;DHT22;8123;50.906;6.172;2023-10-08T11:28:45;19.30;99.90
16038;DHT22;8123;50.906;6.172;2023-10-08T11:31:15;19.30;99.90
16038;DHT22;8123;50.906;6.172;2023-10-08T11:33:45;19.40;99.90
16038;DHT22;8123;50.906;6.172;2023-10-08T11:36:20;19.50;99.90
16038;DHT22;8123;50.906;6.172;2023-10-08T11:38:54;19.60;99.90
16038;DHT22;8123;50.906;6.172;2023-10-08T11:41:26;19.60;99.90
16038;DHT22;8123;50.906;6.172;2023-10-08T11:43:57;19.70;99.90
16038;DHT22;8123;50.906;6.172;2023-10-08T11:46:31;19.70;97.60
16038;DHT22;8123;50.906;6.172;2023-10-08T11:49:04;19.70;29.80
16038;DHT22;8123;50.906;6.172;2023-10-08T11:51:35;19.70;69.90
16038;DHT22;8123;50.906;6.172;2023-10-08T11:54:02;19.70;99.90
16038;DHT22;8123;50.906;6.172;2023-10-08T11:56:30;19.80;95.50
16038;DHT22;8123;50.906;6.172;2023-10-08T11:58:57;19.90;16.90
16038;DHT22;8123;50.906;6.172;2023-10-08T12:01:24;20.00;1.00
16038;DHT22;8123;50.906;6.172;2023-10-08T12:03:50;20.00;89.70
16038;DHT22;8123;50.906;6.172;2023-10-08T12:06:16;20.30;51.00
16038;DHT22;8123;50.906;6.172;2023-10-08T12:08:47;20.50;1.00
16038;DHT22;8123;50.906;6.172;2023-10-08T12:11:15;20.50;1.00
16038;DHT22;8123;50.906;6.172;2023-10-08T12:13:42;20.40;1.00
16038;DHT22;8123;50.906;6.172;2023-10-08T12:16:14;20.50;69.40
16038;DHT22;8123;50.906;6.172;2023-10-08T12:18:49;20.50;1.00
16038;DHT22;8123;50.906;6.172;2023-10-08T12:21:28;20.30;1.00
16038;DHT22;8123;50.906;6.172;2023-10-08T12:23:57;20.40;1.00
16038;DHT22;8123;50.906;6.172;2023-10-08T12:26:23;20.30;92.60
16038;DHT22;8123;50.906;6.172;2023-10-08T12:28:50;20.70;1.00
16038;DHT22;8123;50.906;6.172;2023-10-08T12:31:17;20.20;25.50
16038;DHT22;8123;50.906;6.172;2023-10-08T12:33:47;20.20;21.10
16038;DHT22;8123;50.906;6.172;2023-10-08T12:36:13;20.20;99.90
16038;DHT22;8123;50.906;6.172;2023-10-08T12:38:42;20.20;43.70
16038;DHT22;8123;50.906;6.172;2023-10-08T12:41:11;20.20;99.90
16038;DHT22;8123;50.906;6.172;2023-10-08T12:43:42;20.30;99.90
16038;DHT22;8123;50.906;6.172;2023-10-08T12:46:08;20.40;1.00
16038;DHT22;8123;50.906;6.172;2023-10-08T12:48:43;20.50;1.00
16038;DHT22;8123;50.906;6.172;2023-10-08T12:51:09;20.40;56.00
16038;DHT22;8123;50.906;6.172;2023-10-08T12:53:36;20.50;18.40
16038;DHT22;8123;50.906;6.172;2023-10-08T12:56:06;20.60;1.00
16038;DHT22;8123;50.906;6.172;2023-10-08T12:58:34;20.70;1.00
16038;DHT22;8123;50.906;6.172;2023-10-08T13:01:12;20.70;1.00
16038;DHT22;8123;50.906;6.172;2023-10-08T13:03:42;20.90;1.00
16038;DHT22;8123;50.906;6.172;2023-10-08T13:06:18;21.00;1.00
16038;DHT22;8123;50.906;6.172;2023-10-08T13:08:51;21.10;1.00
16038;DHT22;8123;50.906;6.172;2023-10-08T13:11:19;21.20;1.00
16038;DHT22;8123;50.906;6.172;2023-10-08T13:13:57;21.10;1.00
16038;DHT22;8123;50.906;6.172;2023-10-08T13:16:25;21.20;1.00
16038;DHT22;8123;50.906;6.172;2023-10-08T13:18:51;21.30;1.00
16038;DHT22;8123;50.906;6.172;2023-10-08T13:21:18;21.30;99.90
16038;DHT22;8123;50.906;6.172;2023-10-08T13:23:50;21.30;1.00
16038;DHT22;8123;50.906;6.172;2023-10-08T13:26:16;21.30;1.00
16038;DHT22;8123;50.906;6.172;2023-10-08T13:28:43;21.40;1.00
16038;DHT22;8123;50.906;6.172;2023-10-08T13:31:10;21.40;99.90
16038;DHT22;8123;50.906;6.172;2023-10-08T13:33:39;21.40;99.90
16038;DHT22;8123;50.906;6.172;2023-10-08T13:36:09;21.40;1.00
16038;DHT22;8123;50.906;6.172;2023-10-08T13:38:36;21.40;1.00
16038;DHT22;8123;50.906;6.172;2023-10-08T13:41:03;21.50;1.00
16038;DHT22;8123;50.906;6.172;2023-10-08T13:43:30;21.40;1.00
16038;DHT22;8123;50.906;6.172;2023-10-08T13:46:03;21.40;1.00
16038;DHT22;8123;50.906;6.172;2023-10-08T13:48:36;21.40;1.00
16038;DHT22;8123;50.906;6.172;2023-10-08T13:51:03;21.50;1.00
16038;DHT22;8123;50.906;6.172;2023-10-08T13:53:32;21.40;1.00
16038;DHT22;8123;50.906;6.172;2023-10-08T13:56:02;21.30;1.00
16038;DHT22;8123;50.906;6.172;2023-10-08T13:58:30;21.30;1.00
16038;DHT22;8123;50.906;6.172;2023-10-08T14:00:59;21.30;1.00
16038;DHT22;8123;50.906;6.172;2023-10-08T14:03:29;21.40;1.00
16038;DHT22;8123;50.906;6.172;2023-10-08T14:05:57;21.30;1.00
16038;DHT22;8123;50.906;6.172;2023-10-08T14:08:28;21.30;1.00
16038;DHT22;8123;50.906;6.172;2023-10-08T14:10:54;21.40;1.00
16038;DHT22;8123;50.906;6.172;2023-10-08T14:13:26;21.40;1.00
16038;DHT22;8123;50.906;6.172;2023-10-08T14:15:52;21.40;1.00
16038;DHT22;8123;50.906;6.172;2023-10-08T14:18:25;21.40;1.00
16038;DHT22;8123;50.906;6.172;2023-10-08T14:20:55;21.50;1.00
16038;DHT22;8123;50.906;6.172;2023-10-08T14:23:22;21.60;1.00
16038;DHT22;8123;50.906;6.172;2023-10-08T14:25:49;21.50;1.00
16038;DHT22;8123;50.906;6.172;2023-10-08T14:28:17;21.50;1.00
16038;DHT22;8123;50.906;6.172;2023-10-08T14:31:09;21.50;1.00
16038;DHT22;8123;50.906;6.172;2023-10-08T14:33:43;21.50;99.90
16038;DHT22;8123;50.906;6.172;2023-10-08T14:36:23;21.60;99.90
16038;DHT22;8123;50.906;6.172;2023-10-08T14:39:07;21.70;99.90
16038;DHT22;8123;50.906;6.172;2023-10-08T14:41:51;21.70;99.90
16038;DHT22;8123;50.906;6.172;2023-10-08T14:44:35;21.80;99.90
16038;DHT22;8123;50.906;6.172;2023-10-08T14:47:03;21.70;99.90
16038;DHT22;8123;50.906;6.172;2023-10-08T14:49:29;21.70;1.00
16038;DHT22;8123;50.906;6.172;2023-10-08T14:51:55;21.70;99.90
16038;DHT22;8123;50.906;6.172;2023-10-08T14:54:21;21.60;99.90
16038;DHT22;8123;50.906;6.172;2023-10-08T14:56:46;21.50;1.00
16038;DHT22;8123;50.906;6.172;2023-10-08T14:59:12;21.50;1.00
16038;DHT22;8123;50.906;6.172;2023-10-08T15:01:40;21.40;1.00
16038;DHT22;8123;50.906;6.172;2023-10-08T15:04:06;21.30;1.00
16038;DHT22;8123;50.906;6.172;2023-10-08T15:06:35;21.20;1.00
16038;DHT22;8123;50.906;6.172;2023-10-08T15:09:01;21.30;1.00
16038;DHT22;8123;50.906;6.172;2023-10-08T15:11:26;21.20;29.80
16038;DHT22;8123;50.906;6.172;2023-10-08T15:13:56;21.20;99.90
16038;DHT22;8123;50.906;6.172;2023-10-08T15:16:22;21.20;99.90
16038;DHT22;8123;50.906;6.172;2023-10-08T15:18:52;21.20;99.90
16038;DHT22;8123;50.906;6.172;2023-10-08T15:21:19;21.20;87.50
16038;DHT22;8123;50.906;6.172;2023-10-08T15:23:45;21.10;1.70
16038;DHT22;8123;50.906;6.172;2023-10-08T15:26:13;21.10;44.10
16038;DHT22;8123;50.906;6.172;2023-10-08T15:28:39;21.10;41.90
16038;DHT22;8123;50.906;6.172;2023-10-08T15:31:06;21.10;99.90
16038;DHT22;8123;50.906;6.172;2023-10-08T15:33:32;21.00;99.90
16038;DHT22;8123;50.906;6.172;2023-10-08T15:35:58;21.00;99.90
16038;DHT22;8123;50.906;6.172;2023-10-08T15:38:24;20.90;99.90
16038;DHT22;8123;50.906;6.172;2023-10-08T15:40:51;20.80;99.90
16038;DHT22;8123;50.906;6.172;2023-10-08T15:43:17;20.80;99.90
16038;DHT22;8123;50.906;6.172;2023-10-08T15:45:43;20.80;99.90
16038;DHT22;8123;50.906;6.172;2023-10-08T15:48:10;20.80;99.90
16038;DHT22;8123;50.906;6.172;2023-10-08T15:50:36;20.80;99.90
16038;DHT22;8123;50.906;6.172;2023-10-08T15:53:01;20.80;99.90
16038;DHT22;8123;50.906;6.172;2023-10-08T15:55:27;20.70;99.90
16038;DHT22;8123;50.906;6.172;2023-10-08T15:57:53;20.70;99.90
16038;DHT22;8123;50.906;6.172;2023-10-08T16:00:18;20.70;99.90
16038;DHT22;8123;50.906;6.172;2023-10-08T16:02:44;20.60;1.00
16038;DHT22;8123;50.906;6.172;2023-10-08T16:05:11;20.50;1.00
16038;DHT22;8123;50.906;6.172;2023-10-08T16:07:37;20.50;1.00
16038;DHT22;8123;50.906;6.172;2023-10-08T16:10:03;20.40;99.90
16038;DHT22;8123;50.906;6.172;2023-10-08T16:12:29;20.30;58.60
16038;DHT22;8123;50.906;6.172;2023-10-08T16:14:55;20.20;99.90
16038;DHT22;8123;50.906;6.172;2023-10-08T16:17:21;20.10;1.00
16038;DHT22;8123;50.906;6.172;2023-10-08T16:19:48;20.10;1.00
16038;DHT22;8123;50.906;6.172;2023-10-08T16:22:14;20.00;1.00
16038;DHT22;8123;50.906;6.172;2023-10-08T16:24:40;19.90;1.50